PST,Max TemperatureF,Mean TemperatureF,Min TemperatureF,Max Dew PointF,MeanDew PointF,Min DewpointF,Max Humidity, Mean Humidity, Min Humidity, Max Sea Level PressureIn, Mean Sea Level PressureIn, Min Sea Level PressureIn, Max VisibilityMiles, Mean VisibilityMiles, Min VisibilityMiles, Max Wind SpeedMPH, Mean Wind SpeedMPH, Max Gust SpeedMPH,PrecipitationIn, CloudCover, Events, WindDirDegrees
2012-11-1,63,56,50,54,51,48,100,83,65,30.04,29.86,29.70,10,9,2,12,2,17,0.18,7,Rain,160
2012-11-2,57,52,48,53,50,46,100,90,80,30.05,30.02,29.98,10,6,0,6,1,7,0.25,7,Fog-Rain,171
2012-11-3,61,56,52,56,54,51,100,92,84,30.18,30.08,30.00,10,8,1,8,2,13,0.20,8,Rain,159
2012-11-4,66,60,54,61,57,54,100,89,78,30.31,30.26,30.18,10,7,0,7,1,8,0.03,8,Fog-Rain,157
2012-11-5,63,55,48,58,51,45,100,76,52,30.35,30.28,30.14,10,10,7,13,4,17,T,6,Rain,342
2012-11-6,56,50,45,54,49,45,100,92,83,30.12,30.07,30.04,10,6,0,9,2,12,0.02,7,Fog-Rain,173
2012-11-7,54,46,36,44,40,37,100,80,59,30.18,30.11,29.94,10,9,2,12,1,15,0.03,3,Rain,311
2012-11-8,50,42,34,42,39,33,100,86,71,29.91,29.81,29.76,10,10,4,7,1,8,0.00,5,,30
2012-11-9,45,36,28,38,33,28,100,88,76,29.94,29.89,29.85,10,7,0,6,0,7,0.00,5,Fog,268
2012-11-10,44,36,28,36,32,27,100,85,70,30.23,30.08,29.94,10,8,0,8,2,10,0.00,7,Fog,182
2012-11-11,45,40,36,43,40,34,100,90,79,30.25,30.21,30.17,10,7,4,10,3,15,0.61,8,Rain,161
2012-11-12,52,48,45,48,46,43,100,92,83,30.25,30.18,30.13,10,8,2,12,3,15,0.22,8,Rain,161
2012-11-13,53,50,47,48,47,46,100,89,77,30.25,30.20,30.15,10,6,0,6,1,7,0.01,8,Fog-Rain,134
2012-11-14,55,46,37,47,44,37,100,89,77,30.30,30.25,30.21,10,6,0,6,1,21,0.00,5,Fog,297
2012-11-15,55,44,32,41,36,33,100,77,54,30.21,30.07,29.95,10,8,1,8,1,10,0.00,0,,254
2012-11-16,49,44,39,45,40,37,100,90,80,29.95,29.89,29.74,10,10,8,7,1,10,0.01,7,Rain,191
2012-11-17,50,46,44,46,43,39,93,82,71,29.79,29.66,29.57,10,8,2,14,6,20,0.41,8,Rain,175
2012-11-18,50,46,43,46,43,39,93,87,80,29.83,29.74,29.63,10,8,3,16,9,30,1.52,8,Rain,155
2012-11-19,55,52,49,52,49,46,93,85,77,29.73,29.61,29.51,10,7,2,23,10,40,2.76,8,Rain,183
2012-11-20,56,50,46,49,45,40,93,82,71,29.73,29.67,29.58,10,9,2,26,8,46,0.29,7,Rain,152
2012-11-21,50,42,34,43,39,33,92,82,71,30.32,29.93,29.59,10,9,5,16,4,26,0.25,7,Rain,190
2012-11-22,48,40,32,40,35,30,100,86,71,30.37,30.33,30.26,10,7,0,5,0,7,0.00,3,Fog-Snow,287
2012-11-23,48,42,37,47,43,36,100,91,82,30.26,30.17,30.11,10,7,2,12,2,14,0.75,8,Rain,146
2012-11-24,52,42,34,47,42,34,100,86,71,30.26,30.22,30.16,10,9,2,6,1,8,T,4,Rain-Snow,305
2012-11-25,49,40,32,40,35,30,100,83,66,30.30,30.25,30.14,10,6,0,12,4,15,0.00,3,Fog-Snow,341
2012-11-26,52,40,29,35,31,28,96,69,42,30.14,30.07,30.01,10,10,10,8,4,10,0.00,0,Snow,235
2012-11-27,48,38,29,35,32,29,96,78,60,30.09,30.01,29.89,10,10,10,8,4,13,0.00,0,,211
2012-11-28,47,40,35,40,36,33,92,81,70,29.87,29.73,29.61,10,10,9,9,4,15,0.08,7,Rain,184
2012-11-29,50,44,38,45,40,35,96,86,76,29.70,29.59,29.49,10,9,4,15,4,21,0.41,7,Rain,185
2012-11-30,58,50,43,49,45,39,100,86,72,29.50,29.46,29.43,10,9,4,18,6,25,0.88,8,Rain,161